sensor_id;sensor_type;location;lat;lon;timestamp;temperature;humidity
18047;DHT22;9148;51.454;13.862;2023-12-04T00:01:19;-4.20;99.90
18047;DHT22;9148;51.454;13.862;2023-12-04T00:03:45;-4.30;99.90
18047;DHT22;9148;51.454;13.862;2023-12-04T00:06:11;-4.50;99.90
18047;DHT22;9148;51.454;13.862;2023-12-04T00:08:37;-4.50;99.90
18047;DHT22;9148;51.454;13.862;2023-12-04T00:11:04;-4.60;99.90
18047;DHT22;9148;51.454;13.862;2023-12-04T00:13:30;-4.50;99.90
18047;DHT22;9148;51.454;13.862;2023-12-04T00:15:56;-4.50;99.90
18047;DHT22;9148;51.454;13.862;2023-12-04T00:18:22;-4.60;99.90
18047;DHT22;9148;51.454;13.862;2023-12-04T00:20:48;-4.50;99.90
18047;DHT22;9148;51.454;13.862;2023-12-04T00:23:13;-4.70;99.90
18047;DHT22;9148;51.454;13.862;2023-12-04T00:25:39;-4.70;99.90
18047;DHT22;9148;51.454;13.862;2023-12-04T00:28:05;-4.60;99.90
18047;DHT22;9148;51.454;13.862;2023-12-04T00:30:30;-4.70;99.90
18047;DHT22;9148;51.454;13.862;2023-12-04T00:32:56;-4.60;99.90
18047;DHT22;9148;51.454;13.862;2023-12-04T00:35:22;-4.50;99.90
18047;DHT22;9148;51.454;13.862;2023-12-04T00:37:47;-4.50;99.90
18047;DHT22;9148;51.454;13.862;2023-12-04T00:40:13;-4.40;99.90
18047;DHT22;9148;51.454;13.862;2023-12-04T00:42:39;-4.50;99.90
18047;DHT22;9148;51.454;13.862;2023-12-04T00:45:05;-4.50;99.90
18047;DHT22;9148;51.454;13.862;2023-12-04T00:47:31;-4.50;99.90
18047;DHT22;9148;51.454;13.862;2023-12-04T00:49:56;-4.50;99.90
18047;DHT22;9148;51.454;13.862;2023-12-04T00:52:22;-4.60;99.90
18047;DHT22;9148;51.454;13.862;2023-12-04T00:54:48;-4.60;99.90
18047;DHT22;9148;51.454;13.862;2023-12-04T00:57:14;-4.60;99.90
18047;DHT22;9148;51.454;13.862;2023-12-04T00:59:39;-4.60;99.90
18047;DHT22;9148;51.454;13.862;2023-12-04T01:02:14;-4.60;99.90
18047;DHT22;9148;51.454;13.862;2023-12-04T01:04:40;-4.40;99.90
18047;DHT22;9148;51.454;13.862;2023-12-04T01:07:09;-4.40;99.90
18047;DHT22;9148;51.454;13.862;2023-12-04T01:09:38;-4.60;99.90
18047;DHT22;9148;51.454;13.862;2023-12-04T01:12:04;-4.50;99.90
18047;DHT22;9148;51.454;13.862;2023-12-04T01:14:30;-4.60;99.90
18047;DHT22;9148;51.454;13.862;2023-12-04T01:16:56;-4.50;99.90
18047;DHT22;9148;51.454;13.862;2023-12-04T01:19:21;-4.40;99.90
18047;DHT22;9148;51.454;13.862;2023-12-04T01:21:47;-4.50;99.90
18047;DHT22;9148;51.454;13.862;2023-12-04T01:24:14;-4.50;99.90
18047;DHT22;9148;51.454;13.862;2023-12-04T01:26:43;-4.50;99.90
18047;DHT22;9148;51.454;13.862;2023-12-04T01:29:09;-4.40;99.90
18047;DHT22;9148;51.454;13.862;2023-12-04T01:31:35;-4.50;99.90
18047;DHT22;9148;51.454;13.862;2023-12-04T01:34:00;-4.40;99.90
18047;DHT22;9148;51.454;13.862;2023-12-04T01:36:27;-4.50;99.90
18047;DHT22;9148;51.454;13.862;2023-12-04T01:38:52;-4.60;99.90
18047;DHT22;9148;51.454;13.862;2023-12-04T01:41:18;-4.70;99.90
18047;DHT22;9148;51.454;13.862;2023-12-04T01:43:43;-4.60;99.90
18047;DHT22;9148;51.454;13.862;2023-12-04T01:46:10;-4.60;99.90
18047;DHT22;9148;51.454;13.862;2023-12-04T01:48:36;-4.70;99.90
18047;DHT22;9148;51.454;13.862;2023-12-04T01:51:06;-4.70;99.90
18047;DHT22;9148;51.454;13.862;2023-12-04T01:53:34;-4.80;99.90
18047;DHT22;9148;51.454;13.862;2023-12-04T01:56:01;-4.80;99.90
18047;DHT22;9148;51.454;13.862;2023-12-04T01:58:26;-4.80;99.90
18047;DHT22;9148;51.454;13.862;2023-12-04T02:00:52;-4.90;99.90
18047;DHT22;9148;51.454;13.862;2023-12-04T02:03:18;-4.90;99.90
18047;DHT22;9148;51.454;13.862;2023-12-04T02:05:44;-4.90;99.90
18047;DHT22;9148;51.454;13.862;2023-12-04T02:08:10;-5.00;99.90
18047;DHT22;9148;51.454;13.862;2023-12-04T02:10:36;-4.80;99.90
18047;DHT22;9148;51.454;13.862;2023-12-04T02:13:02;-4.90;99.90
18047;DHT22;9148;51.454;13.862;2023-12-04T02:15:28;-4.90;99.90
18047;DHT22;9148;51.454;13.862;2023-12-04T02:17:54;-5.10;99.90
18047;DHT22;9148;51.454;13.862;2023-12-04T02:20:20;-5.10;99.90
18047;DHT22;9148;51.454;13.862;2023-12-04T02:22:45;-5.20;99.90
18047;DHT22;9148;51.454;13.862;2023-12-04T02:25:11;-5.20;99.90
18047;DHT22;9148;51.454;13.862;2023-12-04T02:27:45;-5.10;99.90
18047;DHT22;9148;51.454;13.862;2023-12-04T02:30:17;-5.20;99.90
18047;DHT22;9148;51.454;13.862;2023-12-04T02:32:46;-5.10;99.90
18047;DHT22;9148;51.454;13.862;2023-12-04T02:35:15;-5.10;99.90
18047;DHT22;9148;51.454;13.862;2023-12-04T02:37:43;-5.30;99.90
18047;DHT22;9148;51.454;13.862;2023-12-04T02:40:11;-5.20;99.90
18047;DHT22;9148;51.454;13.862;2023-12-04T02:42:38;-5.40;99.90
18047;DHT22;9148;51.454;13.862;2023-12-04T02:45:04;-5.40;99.90
18047;DHT22;9148;51.454;13.862;2023-12-04T02:47:30;-5.40;99.90
18047;DHT22;9148;51.454;13.862;2023-12-04T02:49:55;-5.40;99.90
18047;DHT22;9148;51.454;13.862;2023-12-04T02:52:21;-5.50;99.90
18047;DHT22;9148;51.454;13.862;2023-12-04T02:54:47;-5.60;99.90
18047;DHT22;9148;51.454;13.862;2023-12-04T02:57:12;-5.60;99.90
18047;DHT22;9148;51.454;13.862;2023-12-04T02:59:38;-5.40;99.90
18047;DHT22;9148;51.454;13.862;2023-12-04T03:02:04;-5.40;99.90
18047;DHT22;9148;51.454;13.862;2023-12-04T03:04:30;-5.40;99.90
18047;DHT22;9148;51.454;13.862;2023-12-04T03:06:56;-5.30;99.90
18047;DHT22;9148;51.454;13.862;2023-12-04T03:09:22;-5.60;99.90
18047;DHT22;9148;51.454;13.862;2023-12-04T03:11:47;-5.50;99.90
18047;DHT22;9148;51.454;13.862;2023-12-04T03:14:13;-5.60;99.90
18047;DHT22;9148;51.454;13.862;2023-12-04T03:16:39;-5.40;99.90
18047;DHT22;9148;51.454;13.862;2023-12-04T03:19:05;-5.40;99.90
18047;DHT22;9148;51.454;13.862;2023-12-04T03:21:31;-5.40;99.90
18047;DHT22;9148;51.454;13.862;2023-12-04T03:23:56;-5.30;99.90
18047;DHT22;9148;51.454;13.862;2023-12-04T03:26:22;-5.20;99.90
18047;DHT22;9148;51.454;13.862;2023-12-04T03:28:48;-5.30;99.90
18047;DHT22;9148;51.454;13.862;2023-12-04T03:31:14;-5.20;99.90
18047;DHT22;9148;51.454;13.862;2023-12-04T03:33:39;-5.10;99.90
18047;DHT22;9148;51.454;13.862;2023-12-04T03:36:05;-5.20;99.90
18047;DHT22;9148;51.454;13.862;2023-12-04T03:38:31;-5.10;99.90
18047;DHT22;9148;51.454;13.862;2023-12-04T03:40:57;-5.10;99.90
18047;DHT22;9148;51.454;13.862;2023-12-04T03:43:22;-5.00;99.90
18047;DHT22;9148;51.454;13.862;2023-12-04T03:45:52;-5.00;99.90
18047;DHT22;9148;51.454;13.862;2023-12-04T03:48:17;-4.90;99.90
18047;DHT22;9148;51.454;13.862;2023-12-04T03:50:43;-4.90;99.90
18047;DHT22;9148;51.454;13.862;2023-12-04T03:53:08;-4.90;99.90
18047;DHT22;9148;51.454;13.862;2023-12-04T03:55:34;-5.00;99.90
18047;DHT22;9148;51.454;13.862;2023-12-04T03:58:00;-4.90;99.90
18047;DHT22;9148;51.454;13.862;2023-12-04T04:00:25;-5.80;99.90
18047;DHT22;9148;51.454;13.862;2023-12-04T04:02:51;-5.00;99.90
18047;DHT22;9148;51.454;13.862;2023-12-04T04:05:17;-4.90;99.90
18047;DHT22;9148;51.454;13.862;2023-12-04T04:07:43;-5.00;99.90
18047;DHT22;9148;51.454;13.862;2023-12-04T04:10:08;-4.80;99.90
18047;DHT22;9148;51.454;13.862;2023-12-04T04:12:34;-4.70;99.90
18047;DHT22;9148;51.454;13.862;2023-12-04T04:15:00;-4.70;99.90
18047;DHT22;9148;51.454;13.862;2023-12-04T04:17:26;-4.80;99.90
18047;DHT22;9148;51.454;13.862;2023-12-04T04:19:55;-4.80;99.90
18047;DHT22;9148;51.454;13.862;2023-12-04T04:22:21;-4.70;99.90
18047;DHT22;9148;51.454;13.862;2023-12-04T04:24:48;-4.70;99.90
18047;DHT22;9148;51.454;13.862;2023-12-04T04:27:14;-4.70;99.90
18047;DHT22;9148;51.454;13.862;2023-12-04T04:29:40;-4.60;99.90
18047;DHT22;9148;51.454;13.862;2023-12-04T04:32:06;-4.60;99.90
18047;DHT22;9148;51.454;13.862;2023-12-04T04:34:31;-4.60;99.90
18047;DHT22;9148;51.454;13.862;2023-12-04T04:36:57;-3.80;99.90
18047;DHT22;9148;51.454;13.862;2023-12-04T04:39:23;-4.60;99.90
18047;DHT22;9148;51.454;13.862;2023-12-04T04:41:49;-4.50;99.90
18047;DHT22;9148;51.454;13.862;2023-12-04T04:44:14;-4.60;99.90
18047;DHT22;9148;51.454;13.862;2023-12-04T04:46:40;-4.70;99.90
18047;DHT22;9148;51.454;13.862;2023-12-04T04:49:05;-4.70;99.90
18047;DHT22;9148;51.454;13.862;2023-12-04T04:51:32;-4.70;99.90
18047;DHT22;9148;51.454;13.862;2023-12-04T04:54:01;-4.70;99.90
18047;DHT22;9148;51.454;13.862;2023-12-04T04:56:27;-4.80;99.90
18047;DHT22;9148;51.454;13.862;2023-12-04T04:58:53;-4.90;99.90
18047;DHT22;9148;51.454;13.862;2023-12-04T05:01:19;-4.90;99.90
18047;DHT22;9148;51.454;13.862;2023-12-04T05:03:44;-4.90;99.90
18047;DHT22;9148;51.454;13.862;2023-12-04T05:06:19;-4.90;99.90
18047;DHT22;9148;51.454;13.862;2023-12-04T05:08:47;-4.80;99.90
18047;DHT22;9148;51.454;13.862;2023-12-04T05:11:16;-5.00;99.90
18047;DHT22;9148;51.454;13.862;2023-12-04T05:13:42;-5.10;99.90
18047;DHT22;9148;51.454;13.862;2023-12-04T05:16:08;-5.00;99.90
18047;DHT22;9148;51.454;13.862;2023-12-04T05:18:34;-4.90;99.90
18047;DHT22;9148;51.454;13.862;2023-12-04T05:21:00;-4.30;99.90
18047;DHT22;9148;51.454;13.862;2023-12-04T05:23:25;-4.90;99.90
18047;DHT22;9148;51.454;13.862;2023-12-04T05:25:51;-4.80;99.90
18047;DHT22;9148;51.454;13.862;2023-12-04T05:28:17;-4.60;99.90
18047;DHT22;9148;51.454;13.862;2023-12-04T05:30:43;-4.80;99.90
18047;DHT22;9148;51.454;13.862;2023-12-04T05:33:09;-4.80;99.90
18047;DHT22;9148;51.454;13.862;2023-12-04T05:35:35;-4.60;99.90
18047;DHT22;9148;51.454;13.862;2023-12-04T05:38:02;-4.60;99.90
18047;DHT22;9148;51.454;13.862;2023-12-04T05:40:28;-4.40;99.90
18047;DHT22;9148;51.454;13.862;2023-12-04T05:42:53;-4.40;99.90
18047;DHT22;9148;51.454;13.862;2023-12-04T05:45:19;-4.30;99.90
18047;DHT22;9148;51.454;13.862;2023-12-04T05:47:45;-4.30;99.90
18047;DHT22;9148;51.454;13.862;2023-12-04T05:50:11;-4.10;99.90
18047;DHT22;9148;51.454;13.862;2023-12-04T05:52:36;-4.10;99.90
18047;DHT22;9148;51.454;13.862;2023-12-04T05:55:02;-4.00;99.90
18047;DHT22;9148;51.454;13.862;2023-12-04T05:57:28;-3.90;99.90
18047;DHT22;9148;51.454;13.862;2023-12-04T05:59:54;-3.90;99.90
18047;DHT22;9148;51.454;13.862;2023-12-04T06:02:20;-3.80;99.90
18047;DHT22;9148;51.454;13.862;2023-12-04T06:04:46;-3.80;99.90
18047;DHT22;9148;51.454;13.862;2023-12-04T06:07:11;-3.70;99.90
18047;DHT22;9148;51.454;13.862;2023-12-04T06:09:37;-3.50;99.90
18047;DHT22;9148;51.454;13.862;2023-12-04T06:12:03;-3.60;99.90
18047;DHT22;9148;51.454;13.862;2023-12-04T06:14:33;-3.50;99.90
18047;DHT22;9148;51.454;13.862;2023-12-04T06:17:03;-3.50;99.90
18047;DHT22;9148;51.454;13.862;2023-12-04T06:19:29;-3.40;99.90
18047;DHT22;9148;51.454;13.862;2023-12-04T06:21:54;-3.30;99.90
18047;DHT22;9148;51.454;13.862;2023-12-04T06:24:20;-3.30;99.90
18047;DHT22;9148;51.454;13.862;2023-12-04T06:26:50;-3.20;99.90
18047;DHT22;9148;51.454;13.862;2023-12-04T06:29:16;-3.20;99.90
18047;DHT22;9148;51.454;13.862;2023-12-04T06:31:42;-3.10;99.90
18047;DHT22;9148;51.454;13.862;2023-12-04T06:34:08;-3.10;99.90
18047;DHT22;9148;51.454;13.862;2023-12-04T06:36:37;-3.00;99.90
18047;DHT22;9148;51.454;13.862;2023-12-04T06:39:09;-3.00;99.90
18047;DHT22;9148;51.454;13.862;2023-12-04T06:41:36;-3.00;99.90
18047;DHT22;9148;51.454;13.862;2023-12-04T06:44:02;-3.00;99.90
18047;DHT22;9148;51.454;13.862;2023-12-04T06:46:30;-2.90;99.90
18047;DHT22;9148;51.454;13.862;2023-12-04T06:48:59;-2.90;99.90
18047;DHT22;9148;51.454;13.862;2023-12-04T06:51:25;-2.80;99.90
18047;DHT22;9148;51.454;13.862;2023-12-04T06:53:51;-2.80;99.90
18047;DHT22;9148;51.454;13.862;2023-12-04T06:56:16;-2.70;99.90
18047;DHT22;9148;51.454;13.862;2023-12-04T06:58:42;-2.70;99.90
18047;DHT22;9148;51.454;13.862;2023-12-04T07:01:08;-2.80;99.90
18047;DHT22;9148;51.454;13.862;2023-12-04T07:03:33;-2.60;99.90
18047;DHT22;9148;51.454;13.862;2023-12-04T07:05:59;-2.60;99.90
18047;DHT22;9148;51.454;13.862;2023-12-04T07:08:25;-2.50;99.90
18047;DHT22;9148;51.454;13.862;2023-12-04T07:10:51;-2.70;99.90
18047;DHT22;9148;51.454;13.862;2023-12-04T07:13:16;-2.60;99.90
18047;DHT22;9148;51.454;13.862;2023-12-04T07:15:42;-2.60;99.90
18047;DHT22;9148;51.454;13.862;2023-12-04T07:18:08;-3.30;99.90
18047;DHT22;9148;51.454;13.862;2023-12-04T07:20:34;-2.50;99.90
18047;DHT22;9148;51.454;13.862;2023-12-04T07:22:59;-2.50;99.90
18047;DHT22;9148;51.454;13.862;2023-12-04T07:25:25;-2.50;99.90
18047;DHT22;9148;51.454;13.862;2023-12-04T07:27:51;-2.40;99.90
18047;DHT22;9148;51.454;13.862;2023-12-04T07:30:17;-2.50;99.90
18047;DHT22;9148;51.454;13.862;2023-12-04T07:32:42;-2.30;99.90
18047;DHT22;9148;51.454;13.862;2023-12-04T07:35:08;-2.30;99.90
18047;DHT22;9148;51.454;13.862;2023-12-04T07:37:34;-2.30;99.90
18047;DHT22;9148;51.454;13.862;2023-12-04T07:39:59;-2.20;99.90
18047;DHT22;9148;51.454;13.862;2023-12-04T07:42:25;-2.20;99.90
18047;DHT22;9148;51.454;13.862;2023-12-04T07:44:51;-2.20;99.90
18047;DHT22;9148;51.454;13.862;2023-12-04T07:47:16;-2.00;99.90
18047;DHT22;9148;51.454;13.862;2023-12-04T07:49:44;-2.00;99.90
18047;DHT22;9148;51.454;13.862;2023-12-04T07:52:10;-2.00;99.90
18047;DHT22;9148;51.454;13.862;2023-12-04T07:54:36;-1.80;99.90
18047;DHT22;9148;51.454;13.862;2023-12-04T07:57:02;-1.90;99.90
18047;DHT22;9148;51.454;13.862;2023-12-04T07:59:28;-1.90;99.90
18047;DHT22;9148;51.454;13.862;2023-12-04T08:01:54;-1.80;99.90
18047;DHT22;9148;51.454;13.862;2023-12-04T08:04:20;-1.70;99.90
18047;DHT22;9148;51.454;13.862;2023-12-04T08:06:45;-1.70;99.90
18047;DHT22;9148;51.454;13.862;2023-12-04T08:09:11;-1.70;99.90
18047;DHT22;9148;51.454;13.862;2023-12-04T08:11:37;-1.60;99.90
18047;DHT22;9148;51.454;13.862;2023-12-04T08:14:03;-1.60;99.90
18047;DHT22;9148;51.454;13.862;2023-12-04T08:16:29;-1.60;99.90
18047;DHT22;9148;51.454;13.862;2023-12-04T08:18:55;-1.50;99.90
18047;DHT22;9148;51.454;13.862;2023-12-04T08:21:21;-1.50;99.90
18047;DHT22;9148;51.454;13.862;2023-12-04T08:23:47;-1.50;99.90
18047;DHT22;9148;51.454;13.862;2023-12-04T08:26:13;-1.40;99.90
18047;DHT22;9148;51.454;13.862;2023-12-04T08:28:40;-1.40;99.90
18047;DHT22;9148;51.454;13.862;2023-12-04T08:31:07;-1.40;99.90
18047;DHT22;9148;51.454;13.862;2023-12-04T08:33:34;-1.30;99.90
18047;DHT22;9148;51.454;13.862;2023-12-04T08:36:00;-1.40;99.90
18047;DHT22;9148;51.454;13.862;2023-12-04T08:38:26;-1.30;99.90
18047;DHT22;9148;51.454;13.862;2023-12-04T08:40:52;-1.30;99.90
18047;DHT22;9148;51.454;13.862;2023-12-04T08:43:18;-1.30;99.90
18047;DHT22;9148;51.454;13.862;2023-12-04T08:45:45;-1.20;99.90
18047;DHT22;9148;51.454;13.862;2023-12-04T08:48:11;-1.20;99.90
18047;DHT22;9148;51.454;13.862;2023-12-04T08:50:37;-1.20;99.90
18047;DHT22;9148;51.454;13.862;2023-12-04T08:53:03;-1.20;99.90
18047;DHT22;9148;51.454;13.862;2023-12-04T08:55:29;-1.00;99.90
18047;DHT22;9148;51.454;13.862;2023-12-04T08:57:55;-0.90;99.90
18047;DHT22;9148;51.454;13.862;2023-12-04T09:00:21;-1.00;99.90
18047;DHT22;9148;51.454;13.862;2023-12-04T09:02:50;0.10;99.90
18047;DHT22;9148;51.454;13.862;2023-12-04T09:05:15;-0.90;99.90
18047;DHT22;9148;51.454;13.862;2023-12-04T09:07:41;-0.80;99.90
18047;DHT22;9148;51.454;13.862;2023-12-04T09:10:07;-0.80;99.90
18047;DHT22;9148;51.454;13.862;2023-12-04T09:12:33;-0.60;99.90
18047;DHT22;9148;51.454;13.862;2023-12-04T09:15:00;-0.70;99.90
18047;DHT22;9148;51.454;13.862;2023-12-04T09:17:27;-0.70;99.90
18047;DHT22;9148;51.454;13.862;2023-12-04T09:19:53;-0.60;99.90
18047;DHT22;9148;51.454;13.862;2023-12-04T09:22:18;-0.60;99.90
18047;DHT22;9148;51.454;13.862;2023-12-04T09:24:44;-0.60;99.90
18047;DHT22;9148;51.454;13.862;2023-12-04T09:27:10;-0.40;99.90
18047;DHT22;9148;51.454;13.862;2023-12-04T09:29:35;-0.50;99.90
18047;DHT22;9148;51.454;13.862;2023-12-04T09:32:01;-0.40;99.90
18047;DHT22;9148;51.454;13.862;2023-12-04T09:34:27;-0.30;99.90
18047;DHT22;9148;51.454;13.862;2023-12-04T09:36:52;-0.30;99.90
18047;DHT22;9148;51.454;13.862;2023-12-04T09:39:18;-0.40;99.90
18047;DHT22;9148;51.454;13.862;2023-12-04T09:41:44;-0.30;99.90
18047;DHT22;9148;51.454;13.862;2023-12-04T09:44:12;-0.20;99.90
18047;DHT22;9148;51.454;13.862;2023-12-04T09:46:38;0.20;99.90
18047;DHT22;9148;51.454;13.862;2023-12-04T09:49:04;-0.10;99.90
18047;DHT22;9148;51.454;13.862;2023-12-04T09:51:30;0.00;99.90
18047;DHT22;9148;51.454;13.862;2023-12-04T09:53:57;0.00;99.90
18047;DHT22;9148;51.454;13.862;2023-12-04T09:56:26;0.00;99.90
18047;DHT22;9148;51.454;13.862;2023-12-04T09:58:58;0.10;99.90
18047;DHT22;9148;51.454;13.862;2023-12-04T10:01:29;0.20;99.90
18047;DHT22;9148;51.454;13.862;2023-12-04T10:03:57;0.20;99.90
18047;DHT22;9148;51.454;13.862;2023-12-04T10:06:26;0.10;99.90
18047;DHT22;9148;51.454;13.862;2023-12-04T10:08:54;0.30;99.90
18047;DHT22;9148;51.454;13.862;2023-12-04T10:11:22;0.10;99.90
18047;DHT22;9148;51.454;13.862;2023-12-04T10:13:48;0.10;99.90
18047;DHT22;9148;51.454;13.862;2023-12-04T10:16:33;0.10;99.90
18047;DHT22;9148;51.454;13.862;2023-12-04T10:19:29;0.10;99.90
18047;DHT22;9148;51.454;13.862;2023-12-04T10:21:57;0.20;99.90
18047;DHT22;9148;51.454;13.862;2023-12-04T10:24:34;0.10;99.90
18047;DHT22;9148;51.454;13.862;2023-12-04T10:27:02;0.10;99.90
18047;DHT22;9148;51.454;13.862;2023-12-04T10:29:46;0.10;99.90
18047;DHT22;9148;51.454;13.862;2023-12-04T10:32:13;0.20;99.90
18047;DHT22;9148;51.454;13.862;2023-12-04T10:34:42;0.20;99.90
18047;DHT22;9148;51.454;13.862;2023-12-04T10:37:09;0.20;99.90
18047;DHT22;9148;51.454;13.862;2023-12-04T10:39:51;0.10;99.90
18047;DHT22;9148;51.454;13.862;2023-12-04T10:42:29;0.30;99.90
18047;DHT22;9148;51.454;13.862;2023-12-04T10:44:56;0.30;99.90
18047;DHT22;9148;51.454;13.862;2023-12-04T10:47:25;0.50;99.90
18047;DHT22;9148;51.454;13.862;2023-12-04T10:49:52;0.30;99.90
18047;DHT22;9148;51.454;13.862;2023-12-04T10:52:19;0.20;99.90
18047;DHT22;9148;51.454;13.862;2023-12-04T10:54:48;1.30;99.90
18047;DHT22;9148;51.454;13.862;2023-12-04T10:57:22;0.50;99.90
18047;DHT22;9148;51.454;13.862;2023-12-04T10:59:56;0.40;99.90
18047;DHT22;9148;51.454;13.862;2023-12-04T11:02:26;0.40;99.90
18047;DHT22;9148;51.454;13.862;2023-12-04T11:04:55;0.40;99.90
18047;DHT22;9148;51.454;13.862;2023-12-04T11:07:26;0.40;99.90
18047;DHT22;9148;51.454;13.862;2023-12-04T11:09:53;0.40;99.90
18047;DHT22;9148;51.454;13.862;2023-12-04T11:12:21;0.40;99.90
18047;DHT22;9148;51.454;13.862;2023-12-04T11:14:54;0.30;99.90
18047;DHT22;9148;51.454;13.862;2023-12-04T11:17:24;0.40;99.90
18047;DHT22;9148;51.454;13.862;2023-12-04T11:20:11;0.50;99.90
18047;DHT22;9148;51.454;13.862;2023-12-04T11:22:42;0.50;99.90
18047;DHT22;9148;51.454;13.862;2023-12-04T11:25:08;0.40;99.90
18047;DHT22;9148;51.454;13.862;2023-12-04T11:27:36;0.60;99.90
18047;DHT22;9148;51.454;13.862;2023-12-04T11:30:02;0.50;99.90
18047;DHT22;9148;51.454;13.862;2023-12-04T11:32:28;0.60;99.90
18047;DHT22;9148;51.454;13.862;2023-12-04T11:34:55;0.60;99.90
18047;DHT22;9148;51.454;13.862;2023-12-04T11:37:25;0.60;99.90
18047;DHT22;9148;51.454;13.862;2023-12-04T11:39:51;0.60;99.90
18047;DHT22;9148;51.454;13.862;2023-12-04T11:42:23;0.50;99.90
18047;DHT22;9148;51.454;13.862;2023-12-04T11:44:51;0.60;99.90
18047;DHT22;9148;51.454;13.862;2023-12-04T11:47:21;0.50;99.90
18047;DHT22;9148;51.454;13.862;2023-12-04T11:49:47;0.50;99.90
18047;DHT22;9148;51.454;13.862;2023-12-04T11:52:12;0.50;99.90
18047;DHT22;9148;51.454;13.862;2023-12-04T11:57:24;0.20;99.90
18047;DHT22;9148;51.454;13.862;2023-12-04T11:59:52;0.40;99.90
18047;DHT22;9148;51.454;13.862;2023-12-04T12:02:17;0.50;99.90
18047;DHT22;9148;51.454;13.862;2023-12-04T12:04:43;0.40;99.90
18047;DHT22;9148;51.454;13.862;2023-12-04T12:07:11;0.40;99.90
18047;DHT22;9148;51.454;13.862;2023-12-04T12:09:37;0.50;99.90
18047;DHT22;9148;51.454;13.862;2023-12-04T12:12:03;0.50;99.90
18047;DHT22;9148;51.454;13.862;2023-12-04T12:14:30;0.40;99.90
18047;DHT22;9148;51.454;13.862;2023-12-04T12:16:59;0.50;99.90
18047;DHT22;9148;51.454;13.862;2023-12-04T12:19:25;1.30;99.90
18047;DHT22;9148;51.454;13.862;2023-12-04T12:21:51;0.50;99.90
18047;DHT22;9148;51.454;13.862;2023-12-04T12:24:18;0.50;99.90
18047;DHT22;9148;51.454;13.862;2023-12-04T12:26:44;0.60;99.90
18047;DHT22;9148;51.454;13.862;2023-12-04T12:29:11;0.80;99.90
18047;DHT22;9148;51.454;13.862;2023-12-04T12:31:37;0.80;99.90
18047;DHT22;9148;51.454;13.862;2023-12-04T12:34:03;0.90;99.90
18047;DHT22;9148;51.454;13.862;2023-12-04T12:36:29;0.90;99.90
18047;DHT22;9148;51.454;13.862;2023-12-04T12:38:57;0.90;99.90
18047;DHT22;9148;51.454;13.862;2023-12-04T12:41:22;0.90;99.90
18047;DHT22;9148;51.454;13.862;2023-12-04T12:43:52;1.00;99.90
18047;DHT22;9148;51.454;13.862;2023-12-04T12:46:18;1.00;99.90
18047;DHT22;9148;51.454;13.862;2023-12-04T12:48:46;1.00;99.90
18047;DHT22;9148;51.454;13.862;2023-12-04T12:51:12;1.00;99.90
18047;DHT22;9148;51.454;13.862;2023-12-04T12:53:38;1.90;99.90
18047;DHT22;9148;51.454;13.862;2023-12-04T12:56:04;1.00;99.90
18047;DHT22;9148;51.454;13.862;2023-12-04T12:58:31;0.90;99.90
18047;DHT22;9148;51.454;13.862;2023-12-04T13:00:57;0.90;99.90
18047;DHT22;9148;51.454;13.862;2023-12-04T13:03:22;0.90;99.90
18047;DHT22;9148;51.454;13.862;2023-12-04T13:05:48;1.50;99.90
18047;DHT22;9148;51.454;13.862;2023-12-04T13:08:14;0.90;99.90
18047;DHT22;9148;51.454;13.862;2023-12-04T13:10:41;0.90;99.90
18047;DHT22;9148;51.454;13.862;2023-12-04T13:13:10;1.80;99.90
18047;DHT22;9148;51.454;13.862;2023-12-04T13:15:36;0.90;99.90
18047;DHT22;9148;51.454;13.862;2023-12-04T13:18:03;0.80;99.90
18047;DHT22;9148;51.454;13.862;2023-12-04T13:20:28;0.80;99.90
18047;DHT22;9148;51.454;13.862;2023-12-04T13:22:54;0.70;99.90
18047;DHT22;9148;51.454;13.862;2023-12-04T13:25:20;0.70;99.90
18047;DHT22;9148;51.454;13.862;2023-12-04T13:27:46;0.70;99.90
18047;DHT22;9148;51.454;13.862;2023-12-04T13:30:12;1.60;99.90
18047;DHT22;9148;51.454;13.862;2023-12-04T13:32:38;0.90;99.90
18047;DHT22;9148;51.454;13.862;2023-12-04T13:35:04;0.70;99.90
18047;DHT22;9148;51.454;13.862;2023-12-04T13:37:31;0.60;99.90
18047;DHT22;9148;51.454;13.862;2023-12-04T13:39:58;0.70;99.90
18047;DHT22;9148;51.454;13.862;2023-12-04T13:42:28;0.60;99.90
18047;DHT22;9148;51.454;13.862;2023-12-04T13:45:12;0.60;99.90
18047;DHT22;9148;51.454;13.862;2023-12-04T13:47:38;1.00;99.90
18047;DHT22;9148;51.454;13.862;2023-12-04T13:50:08;0.60;99.90
18047;DHT22;9148;51.454;13.862;2023-12-04T13:52:37;0.70;99.90
18047;DHT22;9148;51.454;13.862;2023-12-04T13:55:05;0.60;99.90
18047;DHT22;9148;51.454;13.862;2023-12-04T13:57:43;0.50;99.90
18047;DHT22;9148;51.454;13.862;2023-12-04T14:00:20;0.60;99.90
18047;DHT22;9148;51.454;13.862;2023-12-04T14:02:45;-0.90;99.90
18047;DHT22;9148;51.454;13.862;2023-12-04T14:05:11;0.60;99.90
18047;DHT22;9148;51.454;13.862;2023-12-04T14:07:41;0.50;99.90
18047;DHT22;9148;51.454;13.862;2023-12-04T14:10:09;1.40;99.90
18047;DHT22;9148;51.454;13.862;2023-12-04T14:12:34;1.20;99.90
18047;DHT22;9148;51.454;13.862;2023-12-04T14:15:02;0.60;99.90
18047;DHT22;9148;51.454;13.862;2023-12-04T14:17:28;0.60;99.90
18047;DHT22;9148;51.454;13.862;2023-12-04T14:19:54;0.60;99.90
18047;DHT22;9148;51.454;13.862;2023-12-04T14:22:20;0.60;99.90
18047;DHT22;9148;51.454;13.862;2023-12-04T14:24:45;0.50;99.90
18047;DHT22;9148;51.454;13.862;2023-12-04T14:27:11;0.50;99.90
18047;DHT22;9148;51.454;13.862;2023-12-04T14:29:38;0.60;99.90
18047;DHT22;9148;51.454;13.862;2023-12-04T14:32:05;0.40;99.90
18047;DHT22;9148;51.454;13.862;2023-12-04T14:34:31;0.50;99.90
18047;DHT22;9148;51.454;13.862;2023-12-04T14:36:58;0.60;99.90
18047;DHT22;9148;51.454;13.862;2023-12-04T14:39:24;-1.10;99.90
18047;DHT22;9148;51.454;13.862;2023-12-04T14:41:49;0.30;99.90
18047;DHT22;9148;51.454;13.862;2023-12-04T14:44:16;0.40;99.90
18047;DHT22;9148;51.454;13.862;2023-12-04T14:46:42;0.30;99.90
18047;DHT22;9148;51.454;13.862;2023-12-04T14:49:08;0.30;99.90
18047;DHT22;9148;51.454;13.862;2023-12-04T14:51:33;0.30;99.90
18047;DHT22;9148;51.454;13.862;2023-12-04T14:53:59;0.30;99.90
18047;DHT22;9148;51.454;13.862;2023-12-04T14:56:47;0.20;99.90
18047;DHT22;9148;51.454;13.862;2023-12-04T14:59:35;0.10;99.90
18047;DHT22;9148;51.454;13.862;2023-12-04T15:02:26;0.00;99.90
18047;DHT22;9148;51.454;13.862;2023-12-04T15:05:10;0.30;99.90
18047;DHT22;9148;51.454;13.862;2023-12-04T15:07:54;0.20;99.90
18047;DHT22;9148;51.454;13.862;2023-12-04T15:10:22;0.10;99.90
18047;DHT22;9148;51.454;13.862;2023-12-04T15:13:03;0.10;99.90
18047;DHT22;9148;51.454;13.862;2023-12-04T15:15:52;0.10;99.90
18047;DHT22;9148;51.454;13.862;2023-12-04T15:18:37;0.00;99.90
18047;DHT22;9148;51.454;13.862;2023-12-04T15:21:08;0.10;99.90
18047;DHT22;9148;51.454;13.862;2023-12-04T15:23:34;-0.10;99.90
18047;DHT22;9148;51.454;13.862;2023-12-04T15:26:00;-0.10;99.90
18047;DHT22;9148;51.454;13.862;2023-12-04T15:28:27;-0.10;99.90
18047;DHT22;9148;51.454;13.862;2023-12-04T15:30:53;-0.10;99.90
18047;DHT22;9148;51.454;13.862;2023-12-04T15:33:21;-0.10;99.90
18047;DHT22;9148;51.454;13.862;2023-12-04T15:35:49;-0.10;99.90
18047;DHT22;9148;51.454;13.862;2023-12-04T15:38:15;-0.10;99.90